Data for 05/27/2015

Time Sea-Level Adjusted Pressure Absolute Pressure Temperature Relative Humidity Dew Point   
(mb) (inHg) (mb) (inHg) (C) (F) (%) (C) (F)
00:05 1019 30.09 848 25.04 10.5 51 74 6.2 43.1
00:10 1019 30.09 848 25.04 10.5 50.9 74 6.2 43.1
00:15 1019 30.09 848 25.04 10.4 50.8 77 6.5 43.7
00:20 1019 30.09 848 25.04 10.4 50.7 76 6.4 43.5
00:25 1019 30.09 848 25.04 10.3 50.5 79 6.7 44.1
00:30 1019 30.09 848 25.04 10.2 50.3 80 6.8 44.3
00:35 1019 30.09 848 25.04 10.1 50.1 81 6.9 44.4
00:40 1019 30.09 848 25.04 9.9 49.9 81 6.9 44.4
00:45 1019 30.09 848 25.04 9.9 49.7 82 6.9 44.5
00:50 1019 30.09 848 25.04 9.8 49.7 82 6.8 44.3
00:55 1019 30.09 848 25.04 9.8 49.6 83 7 44.6
01:00 1019 30.09 848 25.04 9.8 49.7 82 6.9 44.4
01:05 1019 30.09 848 25.04 9.8 49.7 82 7 44.6
01:10 1019 30.09 848 25.04 9.9 49.8 82 7 44.6
01:15 1019 30.09 848 25.04 9.9 49.8 80 6.5 43.8
01:20 1019 30.09 848 25.04 9.8 49.7 80 6.5 43.8
01:25 1019 30.09 848 25.04 9.9 49.8 81 6.8 44.2
01:30 1019 30.09 848 25.04 9.9 49.8 80 6.6 43.9
01:35 1019 30.09 848 25.04 10 49.9 80 6.6 44
01:40 1019 30.09 848 25.04 9.9 49.9 80 6.6 44
01:45 1019 30.09 848 25.04 9.9 49.7 80 6.7 44
01:50 1019 30.09 848 25.04 9.8 49.7 79 6.4 43.6
01:55 1019 30.09 848 25.04 9.7 49.5 80 6.4 43.6
02:00 1019 30.09 848 25.04 9.7 49.5 79 6.3 43.4
02:05 1019 30.09 848 25.04 9.7 49.4 79 6.3 43.3
02:10 1019 30.09 848 25.04 9.7 49.5 79 6.3 43.3
02:15 1019 30.09 848 25.04 9.7 49.5 77 5.9 42.7
02:20 1019 30.09 848 25.04 9.7 49.4 78 6 42.9
02:25 1019 30.09 848 25.04 9.8 49.6 77 6 42.7
02:30 1019 30.09 848 25.04 9.8 49.6 77 6 42.7
02:35 1019 30.09 848 25.04 9.8 49.6 77 5.9 42.7
02:40 1019 30.09 848 25.04 9.7 49.4 78 6.1 43
02:45 1019 30.09 848 25.04 9.6 49.3 77 5.9 42.5
02:50 1019 30.09 848 25.04 9.6 49.2 77 5.8 42.4
02:55 1019 30.09 848 25.04 9.5 49.1 77 5.8 42.4
03:00 1019 30.09 848 25.04 9.4 49 79 5.9 42.6
03:05 1019 30.09 848 25.04 9.3 48.8 79 5.8 42.5
03:10 1019 30.09 848 25.04 9.3 48.7 79 5.8 42.5
03:15 1019 30.09 848 25.04 9.3 48.7 79 5.8 42.4
03:20 1019 30.09 848 25.04 9.1 48.5 79 5.7 42.3
03:25 1019 30.09 848 25.04 9.1 48.4 79 5.6 42.1
03:30 1019 30.09 848 25.04 9.1 48.4 79 5.7 42.3
03:35 1019 30.09 848 25.04 9.1 48.4 80 5.8 42.5
03:40 1019 30.09 848 25.04 9.1 48.4 79 5.8 42.4
03:45 1019 30.09 848 25.04 9.1 48.4 80 5.9 42.5
03:50 1019 30.09 848 25.04 9.1 48.4 79 5.6 42.2
03:55 1019 30.09 848 25.04 9.1 48.4 79 5.7 42.3
04:00 1019 30.09 848 25.04 9.1 48.3 80 5.9 42.5
04:05 1019 30.09 848 25.04 9 48.2 80 5.7 42.3
04:10 1019 30.09 848 25.04 9.1 48.3 79 5.6 42.1
04:15 1019 30.09 848 25.04 9.1 48.4 77 5.4 41.7
04:20 1019 30.09 848 25.04 9.3 48.7 78 5.6 42.1
04:25 1019 30.09 848 25.04 9.2 48.6 78 5.5 41.9
04:30 1019 30.09 848 25.04 9.3 48.7 78 5.6 42
04:35 1019 30.09 848 25.04 9.2 48.6 78 5.6 42
04:40 1019 30.09 848 25.04 9.2 48.6 78 5.6 42
04:45 1019 30.09 848 25.04 9.2 48.6 78 5.7 42.2
04:50 1019 30.09 848 25.04 9.2 48.6 79 5.7 42.2
04:55 1019 30.09 848 25.04 9.2 48.5 79 5.7 42.2
05:00 1019 30.09 848 25.04 9.1 48.4 78 5.5 41.9
05:05 1019 30.09 848 25.04 9 48.2 80 5.7 42.3
05:10 1019 30.09 848 25.04 8.9 48 79 5.5 42
05:15 1019 30.09 848 25.04 9 48.2 79 5.6 42.1
05:20 1019 30.09 848 25.04 9 48.3 80 5.7 42.3
05:25 1019 30.09 848 25.04 9.1 48.4 79 5.6 42.2
05:30 1019 30.09 848 25.04 9.2 48.6 79 5.8 42.4
05:35 1019 30.09 848 25.04 9.2 48.6 79 5.8 42.5
05:40 1019 30.09 848 25.04 9.3 48.7 79 5.8 42.5
05:45 1019 30.09 848 25.04 9.3 48.8 79 5.8 42.5
05:50 1019 30.09 848 25.04 9.5 49.1 78 5.9 42.6
05:55 1019 30.09 848 25.04 9.5 49.2 77 5.8 42.4
06:00 1019 30.09 848 25.04 9.5 49.1 77 5.7 42.3
06:05 1019 30.09 848 25.04 9.8 49.6 76 5.7 42.2
06:10 1019 30.09 848 25.04 10 50.1 75 5.8 42.4
06:15 1019 30.09 848 25.04 10.2 50.4 74 5.7 42.3
06:20 1019 30.09 848 25.04 10.3 50.6 73 5.8 42.5
06:25 1019 30.09 848 25.04 10.4 50.7 73 5.8 42.4
06:30 1019 30.09 848 25.04 10.4 50.8 72 5.7 42.3
06:35 1019 30.09 848 25.04 10.5 51 72 5.8 42.4
06:40 1019 30.09 848 25.04 10.6 51.1 72 5.8 42.5
06:45 1019 30.09 848 25.04 10.8 51.4 72 5.9 42.7
06:50 1019 30.09 848 25.04 10.8 51.4 72 6 42.8
06:55 1019 30.09 848 25.04 10.7 51.2 73 6 42.9
07:00 1019 30.09 848 25.04 10.6 51.2 74 6.3 43.4
07:05 1019 30.09 848 25.04 10.7 51.2 75 6.4 43.5
07:10 1019 30.09 848 25.04 10.8 51.4 73 6.1 43
07:15 1019 30.09 848 25.04 10.8 51.4 73 6.2 43.1
07:20 1019 30.09 849 25.07 10.7 51.2 74 6.3 43.3
07:25 1019 30.09 849 25.07 10.8 51.5 72 6.1 42.9
07:30 1019 30.09 849 25.07 10.8 51.5 71 5.7 42.3
07:35 1019 30.09 849 25.07 10.5 50.8 72 5.7 42.2
07:40 1019 30.09 849 25.07 10.8 51.4 71 5.7 42.2
07:45 1019 30.09 849 25.07 11 51.7 71 6 42.8
07:50 1019 30.09 849 25.07 11.2 52.1 70 5.9 42.6
07:55 1019 30.09 849 25.07 11.3 52.3 70 6 42.7
08:00 1019 30.09 849 25.07 11.4 52.4 70 6.1 43.1
08:05 1019 30.09 849 25.07 11.2 52.2 71 6.3 43.3
08:10 1019 30.09 849 25.07 11.2 52.2 72 6.3 43.4
08:15 1019 30.09 849 25.07 11.5 52.6 71 6.3 43.4
08:20 1019 30.09 849 25.07 11.3 52.4 71 6.3 43.4
08:25 1019 30.09 849 25.07 11.4 52.5 70 6.2 43.2
08:30 1019 30.09 849 25.07 11.5 52.8 69 6.2 43.1
08:35 1019 30.09 849 25.07 11.8 53.2 69 6.3 43.3
08:40 1019 30.09 849 25.07 11.5 52.6 71 6.4 43.6
08:45 1019 30.09 849 25.07 11.6 52.9 70 6.3 43.3
08:50 1019 30.09 849 25.07 12 53.6 67 6.2 43.1
08:55 1019 30.09 849 25.07 11.9 53.4 68 6.2 43.1
09:00 1019 30.09 849 25.07 11.8 53.2 67 5.9 42.6
09:05 1019 30.09 849 25.07 11.9 53.4 67 5.9 42.6
09:10 1019 30.09 848 25.04 11.9 53.4 68 6.2 43.1
09:15 1019 30.09 848 25.04 12.2 53.9 66 6.1 43
09:20 1019 30.09 848 25.04 12.2 54 69 6.7 44.1
09:25 1019 30.09 848 25.04 12 53.6 68 6.3 43.3
09:30 1019 30.09 848 25.04 12.6 54.6 63 5.9 42.6
09:35 1019 30.09 848 25.04 12.9 55.2 64 6.2 43.2
09:40 1019 30.09 848 25.04 12.7 54.9 65 6.3 43.4
09:45 1019 30.09 848 25.04 13.7 56.6 57 5.5 41.8
09:50 1019 30.09 848 25.04 14.3 57.8 55 5.6 42
09:55 1019 30.09 848 25.04 14.6 58.3 56 6 42.9
10:00 1019 30.09 848 25.04 15.1 59.1 55 6.1 43
10:05 1019 30.09 848 25.04 15.2 59.4 52 5.5 41.9
10:10 1019 30.09 848 25.04 15.3 59.6 54 6.2 43.1
10:15 1019 30.09 848 25.04 14.7 58.5 54 5.5 41.9
10:20 1019 30.09 848 25.04 14.2 57.5 56 5.6 42
10:25 1019 30.09 848 25.04 14.7 58.5 54 5.7 42.2
10:30 1019 30.09 848 25.04 15.8 60.4 53 6.3 43.3
10:35 1019 30.09 848 25.04 15.7 60.2 51 5.6 42.1
10:40 1019 30.09 848 25.04 15.6 60.1 52 5.8 42.5
10:45 1019 30.09 848 25.04 15 58.9 49 4.5 40.1
10:50 1019 30.09 848 25.04 16 60.8 46 4.6 40.4
10:55 1018 30.06 848 25.04 16.6 61.9 46 5.2 41.3
11:00 1018 30.06 848 25.04 17.2 62.9 45 5.2 41.3
11:05 1018 30.06 848 25.04 17.3 63.1 46 5.7 42.3
11:10 1018 30.06 848 25.04 16.3 61.4 49 5.6 42.1
11:15 1018 30.06 847 25.01 16.2 61.1 46 4.8 40.6
11:20 1018 30.06 847 25.01 16.9 62.5 44 4.7 40.5
11:25 1018 30.06 847 25.01 16.1 61.1 47 4.9 40.8
11:30 1018 30.06 847 25.01 16.4 61.6 45 4.7 40.4
11:35 1018 30.06 847 25.01 16.5 61.7 46 4.9 40.8
11:40 1018 30.06 847 25.01 16.5 61.6 45 4.6 40.3
11:45 1018 30.06 847 25.01 15.6 60.1 47 4.5 40
11:50 1018 30.06 847 25.01 16 60.8 46 4.4 39.9
11:55 1018 30.06 847 25.01 16.5 61.8 43 4.2 39.5
12:00 1018 30.06 847 25.01 16.6 61.8 45 4.7 40.4
12:05 1018 30.06 847 25.01 16.8 62.2 43 4.1 39.4
12:10 1018 30.06 847 25.01 16.8 62.3 44 4.5 40.1
12:15 1018 30.06 847 25.01 16.2 61.2 45 4.5 40.1
12:20 1018 30.06 847 25.01 16.5 61.6 45 4.5 40.1
12:25 1018 30.06 847 25.01 16.8 62.2 45 4.9 40.9
12:30 1018 30.06 847 25.01 16.9 62.4 45 5.1 41.2
12:35 1018 30.06 847 25.01 15.8 60.4 48 4.8 40.6
12:40 1018 30.06 847 25.01 16.2 61.1 45 4.2 39.5
12:45 1018 30.06 847 25.01 16.4 61.6 46 4.9 40.9
12:50 1018 30.06 847 25.01 16.8 62.3 43 4.3 39.7
12:55 1018 30.06 847 25.01 17.6 63.6 40 4 39.2
13:00 1018 30.06 847 25.01 17.1 62.8 41 4 39.2
13:05 1018 30.06 847 25.01 16.5 61.6 43 4 39.3
13:10 1018 30.06 847 25.01 16.5 61.7 43 3.9 39
13:15 1018 30.06 847 25.01 16.5 61.7 44 4.3 39.8
13:20 1018 30.06 847 25.01 16 60.7 45 4.1 39.4
13:25 1018 30.06 847 25.01 15.5 59.9 46 4 39.2
13:30 1018 30.06 847 25.01 15.1 59.2 47 3.8 38.9
13:35 1018 30.06 847 25.01 15.2 59.4 44 3.1 37.5
13:40 1018 30.06 847 25.01 15 58.9 47 4 39.2
13:45 1018 30.06 847 25.01 14.8 58.7 52 5.1 41.3
13:50 1018 30.06 847 25.01 15 59.1 57 6.7 44.1
13:55 1018 30.06 847 25.01 14.8 58.6 60 7.2 44.9
14:00 1018 30.06 848 25.04 14.5 58.1 63 7.5 45.5
14:05 1019 30.09 848 25.04 14 57.2 66 7.9 46.3
14:10 1019 30.09 848 25.04 12.2 54 74 7.7 45.9
14:15 1019 30.09 848 25.04 10.5 50.9 76 6.5 43.7
14:20 1019 30.09 848 25.04 9.2 48.6 77 5.3 41.6
14:25 1019 30.09 848 25.04 9.3 48.7 72 4.5 40.2
14:30 1019 30.09 848 25.04 8.8 47.8 76 4.7 40.5
14:35 1019 30.09 848 25.04 8.7 47.7 74 4.3 39.8
14:40 1019 30.09 848 25.04 9 48.3 75 4.9 40.8
14:45 1019 30.09 848 25.04 8.9 48 79 5.4 41.7
14:50 1019 30.09 848 25.04 9.1 48.3 79 5.7 42.2
14:55 1019 30.09 848 25.04 9 48.2 81 5.9 42.7
15:00 1019 30.09 848 25.04 8.9 47.9 82 6 42.7
15:05 1019 30.09 848 25.04 8.9 47.9 83 6.2 43.1
15:10 1019 30.09 848 25.04 8.8 47.9 84 6.2 43.2
15:15 1019 30.09 848 25.04 8.9 48.1 84 6.4 43.5
15:20 1019 30.09 848 25.04 9.3 48.7 81 6.2 43.2
15:25 1019 30.09 848 25.04 9.6 49.4 81 6.6 43.9
15:30 1019 30.09 848 25.04 10 50 80 6.7 44
15:35 1019 30.09 848 25.04 10.2 50.4 78 6.6 43.9
15:40 1019 30.09 848 25.04 10.4 50.7 78 6.8 44.2
15:45 1019 30.09 848 25.04 10.7 51.2 76 6.6 43.8
15:50 1019 30.09 848 25.04 10.6 51.1 76 6.6 43.9
15:55 1018 30.06 848 25.04 10.8 51.4 74 6.4 43.6
16:00 1018 30.06 848 25.04 11 51.8 73 6.4 43.5
16:05 1018 30.06 848 25.04 11.2 52.2 70 6 42.7
16:10 1018 30.06 848 25.04 11.4 52.5 69 6 42.8
16:15 1018 30.06 848 25.04 11.8 53.2 70 6.5 43.6
16:20 1018 30.06 848 25.04 12.2 53.9 67 6.3 43.4
16:25 1018 30.06 847 25.01 12.4 54.3 66 6.2 43.2
16:30 1018 30.06 847 25.01 12.7 54.9 62 5.7 42.2
16:35 1018 30.06 847 25.01 13.2 55.8 61 5.9 42.7
16:40 1018 30.06 847 25.01 13.3 55.9 59 5.5 41.8
16:45 1018 30.06 847 25.01 12.9 55.3 62 5.8 42.4
16:50 1018 30.06 847 25.01 13.1 55.5 56 4.6 40.4
16:55 1018 30.06 847 25.01 13.1 55.6 60 5.5 41.9
17:00 1018 30.06 847 25.01 13.2 55.7 57 4.8 40.6
17:05 1018 30.06 847 25.01 13.2 55.7 58 5.2 41.3
17:10 1018 30.06 847 25.01 13.3 55.9 59 5.4 41.8
17:15 1018 30.06 847 25.01 13.3 55.9 60 5.8 42.4
17:20 1018 30.06 847 25.01 13.3 55.9 59 5.5 42
17:25 1018 30.06 847 25.01 13.4 56.1 58 5.4 41.8
17:30 1018 30.06 847 25.01 13.5 56.3 59 5.6 42.1
17:35 1018 30.06 847 25.01 13.7 56.6 59 5.9 42.6
17:40 1018 30.06 847 25.01 13.9 57.1 55 5 41
17:45 1018 30.06 847 25.01 14.1 57.4 58 6 42.8
17:50 1018 30.06 847 25.01 14.2 57.6 58 6.1 42.9
17:55 1018 30.06 847 25.01 14.1 57.5 58 6.1 43
18:00 1018 30.06 847 25.01 14 57.2 59 6.3 43.3
18:05 1018 30.06 847 25.01 13.7 56.6 60 6.2 43.2
18:10 1018 30.06 847 25.01 13.5 56.2 59 5.8 42.4
18:15 1018 30.06 847 25.01 13.3 55.9 60 5.7 42.2
18:20 1018 30.06 847 25.01 13.2 55.8 60 5.7 42.3
18:25 1018 30.06 847 25.01 13.2 55.7 60 5.7 42.3
18:30 1018 30.06 847 25.01 13.2 55.7 62 6 42.8
18:35 1018 30.06 847 25.01 13.3 55.9 61 5.9 42.7
18:40 1018 30.06 847 25.01 13.2 55.8 61 5.9 42.7
18:45 1018 30.06 847 25.01 13.2 55.8 60 5.6 42.1
18:50 1018 30.06 847 25.01 13.2 55.7 59 5.4 41.7
18:55 1018 30.06 847 25.01 13.1 55.6 60 5.7 42.2
19:00 1018 30.06 847 25.01 13.1 55.6 60 5.6 42.1
19:05 1018 30.06 847 25.01 13.1 55.6 60 5.5 42
19:10 1018 30.06 847 25.01 13 55.3 62 5.8 42.5
19:15 1018 30.06 847 25.01 12.9 55.1 62 5.9 42.6
19:20 1018 30.06 847 25.01 12.8 55 63 5.9 42.6
19:25 1018 30.06 847 25.01 12.6 54.7 64 5.9 42.7
19:30 1018 30.06 847 25.01 12.5 54.6 64 6.1 42.9
19:35 1018 30.06 847 25.01 12.4 54.3 65 6 42.7
19:40 1018 30.06 847 25.01 12.3 54.1 65 6 42.8
19:45 1018 30.06 847 25.01 12.2 54 66 6.1 43
19:50 1018 30.06 847 25.01 12.1 53.8 66 6 42.9
19:55 1018 30.06 847 25.01 11.9 53.5 67 6 42.8
20:00 1018 30.06 847 25.01 11.7 53.1 68 6.2 43.1
20:05 1018 30.06 847 25.01 11.5 52.7 70 6.2 43.2
20:10 1018 30.06 847 25.01 11.3 52.3 72 6.4 43.6
20:15 1018 30.06 847 25.01 11.1 52 74 6.6 44
20:20 1018 30.06 848 25.04 11 51.7 76 6.8 44.3
20:25 1018 30.06 848 25.04 10.9 51.6 76 6.9 44.5
20:30 1018 30.06 848 25.04 10.8 51.5 77 7 44.6
20:35 1018 30.06 848 25.04 10.6 51 79 7 44.6
20:40 1018 30.06 848 25.04 10.2 50.4 79 6.8 44.2
20:45 1019 30.09 848 25.04 10.1 50.2 79 6.7 44
20:50 1019 30.09 848 25.04 9.9 49.9 79 6.5 43.7
20:55 1019 30.09 848 25.04 9.8 49.6 79 6.4 43.5
21:00 1019 30.09 848 25.04 9.7 49.5 79 6.3 43.3
21:05 1019 30.09 848 25.04 9.5 49.1 80 6.2 43.2
21:10 1019 30.09 848 25.04 9.4 48.9 80 6.2 43.2
21:15 1019 30.09 848 25.04 9.3 48.7 81 6.1 43
21:20 1019 30.09 848 25.04 9.2 48.6 81 6.1 42.9
21:25 1019 30.09 848 25.04 9.4 48.9 79 5.9 42.6
21:30 1019 30.09 848 25.04 9.5 49.1 78 5.9 42.7
21:35 1019 30.09 848 25.04 9.5 49.1 78 5.9 42.6
21:40 1019 30.09 848 25.04 9.4 48.9 78 5.8 42.5
21:45 1019 30.09 848 25.04 9.3 48.8 78 5.7 42.3
21:50 1019 30.09 848 25.04 9.3 48.8 79 5.9 42.5
21:55 1019 30.09 848 25.04 9.5 49 79 6 42.7
22:00 1019 30.09 848 25.04 9.3 48.8 79 5.9 42.6
22:05 1019 30.09 848 25.04 9.2 48.5 81 6 42.9
22:10 1019 30.09 848 25.04 9.1 48.4 81 6 42.8
22:15 1019 30.09 848 25.04 9.3 48.7 81 6.2 43.2
22:20 1019 30.09 848 25.04 9.7 49.4 80 6.4 43.5
22:25 1019 30.09 848 25.04 9.8 49.7 83 7 44.6
22:30 1019 30.09 848 25.04 9.7 49.5 83 7 44.6
22:35 1019 30.09 848 25.04 9.7 49.4 80 6.4 43.5
22:40 1019 30.09 848 25.04 9.9 49.9 80 6.6 43.8
22:45 1019 30.09 848 25.04 9.9 49.9 79 6.4 43.6
22:50 1019 30.09 848 25.04 9.7 49.4 78 6.1 43
22:55 1019 30.09 848 25.04 9.6 49.3 79 6.1 43
23:00 1019 30.09 848 25.04 9.5 49.1 81 6.3 43.4
23:05 1019 30.09 848 25.04 9.3 48.8 81 6.3 43.3
23:10 1019 30.09 848 25.04 9.3 48.7 82 6.3 43.3
23:15 1019 30.09 848 25.04 9.2 48.6 82 6.4 43.5
23:20 1019 30.09 848 25.04 9.1 48.4 83 6.3 43.4
23:25 1019 30.09 849 25.07 9 48.2 85 6.7 44
23:30 1019 30.09 849 25.07 8.7 47.7 88 6.9 44.3
23:35 1019 30.09 849 25.07 8.6 47.4 87 6.6 43.8
23:40 1019 30.09 849 25.07 8.6 47.6 88 6.7 44.1
23:45 1019 30.09 849 25.07 8.6 47.5 87 6.6 43.9
23:50 1019 30.09 849 25.07 8.6 47.5 87 6.5 43.8
23:55 1019 30.09 849 25.07 8.6 47.4 87 6.6 43.9
24:00 1019 30.09 849 25.07 8.5 47.2 89 6.7 44